Time;durP1;ratioP1;P1;durP2;ratioP2;P2;SDS_P1;SDS_P2;PMS_P1;PMS_P2;Temp;Humidity;BMP_temperature;BMP_pressure;BME280_temperature;BME280_humidity;BME280_pressure;Samples;Min_cycle;Max_cycle;Signal;HPM_P1;HPM_P2
2021/04/07 00:01:17;;;;;;;9.67;1.53;;;;;;;;;;4331464;33;20195;-71
2021/04/07 00:04:19;;;;;;;8.00;1.40;;;;;;;;;;4330947;33;20206;-71
2021/04/07 00:07:23;;;;;;;9.47;2.10;;;;;;;;;;4330967;33;20144;-71
2021/04/07 00:09:52;;;;;;;10.43;1.83;;;;;;;;;;4300118;33;20255;-70
2021/04/07 00:13:02;;;;;;;13.60;1.50;;;;;;;;;;4299401;33;20258;-70
2021/04/07 00:15:05;;;;;;;11.20;1.60;;;;;;;;;;4316436;33;20167;-70
2021/04/07 00:17:30;;;;;;;9.70;1.60;;;;;;;;;;4330747;33;20248;-71
2021/04/07 00:20:05;;;;;;;8.27;1.53;;;;;;;;;;4330044;33;20202;-70
2021/04/07 00:22:30;;;;;;;10.07;1.50;;;;;;;;;;4331121;33;20135;-70
2021/04/07 00:24:55;;;;;;;11.07;1.70;;;;;;;;;;4330864;33;20226;-70
2021/04/07 00:27:31;;;;;;;15.97;1.93;;;;;;;;;;4330510;33;20207;-70
2021/04/07 00:29:56;;;;;;;13.17;2.03;;;;;;;;;;4331080;33;20143;-70
2021/04/07 00:32:21;;;;;;;14.87;2.20;;;;;;;;;;4341843;33;20612;-70
2021/04/07 00:35:18;;;;;;;6.70;1.30;;;;;;;;;;4330294;33;20252;-70
2021/04/07 00:37:44;;;;;;;12.23;1.53;;;;;;;;;;4328492;33;20167;-70
2021/04/07 00:40:17;;;;;;;6.97;2.23;;;;;;;;;;4330833;33;20210;-70
2021/04/07 00:42:43;;;;;;;12.10;1.73;;;;;;;;;;4331312;33;20125;-70
2021/04/07 00:45:18;;;;;;;9.97;1.47;;;;;;;;;;4330845;33;20172;-70
2021/04/07 00:48:03;;;;;;;16.33;2.00;;;;;;;;;;4331189;33;20185;-69
2021/04/07 00:50:38;;;;;;;11.43;1.83;;;;;;;;;;4330416;33;20632;-70
2021/04/07 00:53:04;;;;;;;16.23;1.70;;;;;;;;;;4330789;33;20151;-70
2021/04/07 00:55:32;;;;;;;12.53;1.70;;;;;;;;;;4330331;33;20136;-70
2021/04/07 00:57:58;;;;;;;10.30;1.60;;;;;;;;;;4330716;33;20162;-70
2021/04/07 01:00:24;;;;;;;8.67;1.60;;;;;;;;;;4330438;33;20135;-70
2021/04/07 01:02:53;;;;;;;9.40;1.67;;;;;;;;;;4330140;33;20580;-70
2021/04/07 01:05:22;;;;;;;12.13;1.77;;;;;;;;;;4330999;33;20206;-70
2021/04/07 01:07:57;;;;;;;15.17;2.03;;;;;;;;;;4331297;33;20170;-70
2021/04/07 01:10:22;;;;;;;8.50;1.40;;;;;;;;;;4336227;33;20130;-70
2021/04/07 01:12:47;;;;;;;9.20;1.47;;;;;;;;;;4335748;33;20205;-71
2021/04/07 01:15:13;;;;;;;10.60;1.30;;;;;;;;;;4335101;33;20143;-70
2021/04/07 01:17:39;;;;;;;7.37;1.17;;;;;;;;;;4335505;33;20140;-71
2021/04/07 01:20:13;;;;;;;5.00;1.33;;;;;;;;;;4335631;33;20166;-70
2021/04/07 01:22:39;;;;;;;5.30;0.80;;;;;;;;;;4335702;33;20187;-71
2021/04/07 01:25:05;;;;;;;6.63;1.20;;;;;;;;;;4335355;33;20200;-70
2021/04/07 01:27:37;;;;;;;7.23;0.80;;;;;;;;;;4336344;33;20135;-70
2021/04/07 01:30:10;;;;;;;7.70;1.10;;;;;;;;;;4334931;33;20144;-70
2021/04/07 01:32:41;;;;;;;7.53;1.10;;;;;;;;;;4334092;33;20164;-70
2021/04/07 01:35:07;;;;;;;6.90;1.10;;;;;;;;;;4334737;33;20148;-70
2021/04/07 01:37:33;;;;;;;6.03;1.63;;;;;;;;;;4335141;33;20178;-71
2021/04/07 01:39:58;;;;;;;5.40;1.00;;;;;;;;;;4335466;33;20147;-70
2021/04/07 01:42:32;;;;;;;8.53;1.07;;;;;;;;;;4335602;33;20239;-70
2021/04/07 01:45:02;;;;;;;7.60;1.07;;;;;;;;;;4335805;33;20564;-70
2021/04/07 01:47:31;;;;;;;7.57;1.23;;;;;;;;;;4335125;33;20184;-71
2021/04/07 01:49:58;;;;;;;10.63;1.40;;;;;;;;;;4334329;33;20221;-70
2021/04/07 01:52:23;;;;;;;6.37;1.07;;;;;;;;;;4335691;33;20510;-71
2021/04/07 01:54:51;;;;;;;4.77;1.30;;;;;;;;;;4335138;33;20136;-71
2021/04/07 01:57:19;;;;;;;8.53;1.20;;;;;;;;;;4334729;33;20179;-71
2021/04/07 01:59:44;;;;;;;8.93;1.40;;;;;;;;;;4334793;33;20139;-70
2021/04/07 02:02:09;;;;;;;7.87;1.30;;;;;;;;;;4335145;33;20521;-70
2021/04/07 02:04:35;;;;;;;8.20;1.33;;;;;;;;;;4335134;33;20143;-70
2021/04/07 02:07:22;;;;;;;7.37;1.20;;;;;;;;;;4335243;33;20156;-70
2021/04/07 02:09:47;;;;;;;5.00;1.27;;;;;;;;;;4335735;33;20131;-71
2021/04/07 02:12:16;;;;;;;13.37;1.80;;;;;;;;;;4335251;33;20171;-70
2021/04/07 02:14:41;;;;;;;11.20;1.70;;;;;;;;;;4334660;33;20189;-70
2021/04/07 02:17:07;;;;;;;14.67;2.00;;;;;;;;;;4335124;33;20174;-70
2021/04/07 02:19:33;;;;;;;7.83;1.43;;;;;;;;;;4332948;33;20166;-70
2021/04/07 02:22:08;;;;;;;13.13;2.50;;;;;;;;;;4333201;33;20215;-70
2021/04/07 02:24:43;;;;;;;10.33;1.90;;;;;;;;;;4332500;33;20456;-70
2021/04/07 02:27:22;;;;;;;12.03;2.10;;;;;;;;;;4332828;33;20166;-71
2021/04/07 02:29:52;;;;;;;12.97;1.60;;;;;;;;;;4332493;33;20163;-70
2021/04/07 02:32:17;;;;;;;12.73;2.37;;;;;;;;;;4333991;33;20172;-70
2021/04/07 02:34:45;;;;;;;13.83;2.10;;;;;;;;;;4331011;33;20231;-71
2021/04/07 02:37:11;;;;;;;12.13;1.70;;;;;;;;;;4331994;33;20144;-71
2021/04/07 02:39:37;;;;;;;12.93;2.50;;;;;;;;;;4331967;33;20166;-71
2021/04/07 02:42:02;;;;;;;9.33;1.93;;;;;;;;;;4331603;33;20211;-71
2021/04/07 02:44:30;;;;;;;10.70;2.30;;;;;;;;;;4331311;33;20186;-71
2021/04/07 02:47:11;;;;;;;15.73;2.53;;;;;;;;;;4331374;33;20155;-70
2021/04/07 02:49:39;;;;;;;10.30;1.73;;;;;;;;;;4331410;33;20159;-71
2021/04/07 02:55:12;;;;;;;13.17;1.97;;;;;;;;;;4300278;33;20537;-70
2021/04/07 02:57:41;;;;;;;8.27;1.80;;;;;;;;;;4330999;33;20151;-71
2021/04/07 03:00:07;;;;;;;11.23;2.43;;;;;;;;;;4332053;33;20132;-71
2021/04/07 03:02:32;;;;;;;9.20;1.40;;;;;;;;;;4332775;33;20287;-70
2021/04/07 03:05:10;;;;;;;12.93;1.70;;;;;;;;;;4332132;33;20498;-71
2021/04/07 03:07:41;;;;;;;14.03;2.23;;;;;;;;;;4332132;33;20158;-70
2021/04/07 03:10:25;;;;;;;20.30;2.80;;;;;;;;;;4331749;33;20251;-70
2021/04/07 03:12:50;;;;;;;13.63;1.90;;;;;;;;;;4331214;33;20155;-71
2021/04/07 03:15:35;;;;;;;14.77;2.10;;;;;;;;;;4331893;33;20624;-71
2021/04/07 03:21:21;;;;;;;10.20;1.97;;;;;;;;;;4330591;33;20225;-70
2021/04/07 03:23:50;;;;;;;16.40;2.10;;;;;;;;;;4331639;33;20163;-73
2021/04/07 03:26:34;;;;;;;16.63;2.30;;;;;;;;;;4330877;33;20615;-71
2021/04/07 03:28:59;;;;;;;13.53;1.97;;;;;;;;;;4331657;33;20143;-70
2021/04/07 03:31:27;;;;;;;12.37;2.40;;;;;;;;;;4331274;33;20501;-71
2021/04/07 03:33:53;;;;;;;13.03;1.60;;;;;;;;;;4330863;33;20216;-70
2021/04/07 03:36:51;;;;;;;4.43;1.30;;;;;;;;;;4330229;33;20423;-70
2021/04/07 03:39:22;;;;;;;5.83;1.50;;;;;;;;;;4329663;33;20171;-70
2021/04/07 03:41:47;;;;;;;10.37;1.70;;;;;;;;;;4331421;33;20662;-70
2021/04/07 03:44:12;;;;;;;10.83;1.77;;;;;;;;;;4331307;33;20135;-70
2021/04/07 03:46:37;;;;;;;5.17;1.43;;;;;;;;;;4331850;33;20132;-69
2021/04/07 03:49:03;;;;;;;9.40;1.70;;;;;;;;;;4331738;33;20128;-69
2021/04/07 03:51:28;;;;;;;14.37;1.93;;;;;;;;;;4331295;33;20187;-69
2021/04/07 03:53:54;;;;;;;9.70;1.90;;;;;;;;;;4331848;33;20415;-69
2021/04/07 03:56:19;;;;;;;9.17;1.40;;;;;;;;;;4329833;33;20202;-69
2021/04/07 03:58:44;;;;;;;9.23;1.93;;;;;;;;;;4329934;33;20152;-70
2021/04/07 04:01:21;;;;;;;10.00;1.70;;;;;;;;;;4331296;33;20512;-69
2021/04/07 04:03:50;;;;;;;7.83;1.90;;;;;;;;;;4331362;33;20182;-71
2021/04/07 04:06:15;;;;;;;11.67;2.27;;;;;;;;;;4331017;33;20593;-71
2021/04/07 04:08:40;;;;;;;12.13;2.07;;;;;;;;;;4331224;33;20201;-70
2021/04/07 04:11:32;;;;;;;10.03;2.10;;;;;;;;;;4331416;33;20132;-71
2021/04/07 04:13:57;;;;;;;10.23;2.07;;;;;;;;;;4316293;33;20191;-71
2021/04/07 04:16:22;;;;;;;11.67;2.37;;;;;;;;;;4316393;33;20533;-70
2021/04/07 04:18:49;;;;;;;13.50;2.20;;;;;;;;;;4327835;33;20204;-70
2021/04/07 04:21:15;;;;;;;9.10;1.67;;;;;;;;;;4315280;33;20604;-70
2021/04/07 04:23:53;;;;;;;;;;;;;;;;;;;;;
2021/04/07 04:26:19;;;;;;;8.00;2.37;;;;;;;;;;4313795;33;20178;-70
2021/04/07 04:28:44;;;;;;;13.97;3.00;;;;;;;;;;4316615;33;20139;-70
2021/04/07 04:31:09;;;;;;;9.23;2.40;;;;;;;;;;4316291;33;20152;-70
2021/04/07 04:33:38;;;;;;;12.83;2.33;;;;;;;;;;4321816;33;20531;-71
2021/04/07 04:36:06;;;;;;;15.40;3.27;;;;;;;;;;4330251;33;20177;-70
2021/04/07 04:38:32;;;;;;;15.27;2.70;;;;;;;;;;4331289;33;20144;-71
2021/04/07 04:41:06;;;;;;;16.80;2.70;;;;;;;;;;4330434;33;20196;-71
2021/04/07 04:43:36;;;;;;;12.90;3.00;;;;;;;;;;4330488;33;20153;-70
2021/04/07 04:46:01;;;;;;;16.70;3.17;;;;;;;;;;4329212;33;20156;-69
2021/04/07 04:48:27;;;;;;;16.70;3.07;;;;;;;;;;4316148;33;20593;-69
2021/04/07 04:50:55;;;;;;;18.33;3.00;;;;;;;;;;4316104;33;20136;-69
2021/04/07 04:53:33;;;;;;;;;;;;;;;;;;;;;
2021/04/07 04:56:08;;;;;;;19.43;4.00;;;;;;;;;;4316043;33;20630;-69
2021/04/07 04:58:39;;;;;;;17.67;3.63;;;;;;;;;;4315875;33;20210;-70
2021/04/07 05:01:14;;;;;;;;;;;;;;;;;;;;;
2021/04/07 05:03:43;;;;;;;16.13;3.20;;;;;;;;;;4322002;33;20178;-70
2021/04/07 05:06:21;;;;;;;;;;;;;;;;;;;;;
2021/04/07 05:08:50;;;;;;;27.77;3.63;;;;;;;;;;4330670;33;20202;-70
2021/04/07 05:11:42;;;;;;;17.03;3.20;;;;;;;;;;4330287;33;20171;-69
2021/04/07 05:14:20;;;;;;;25.60;3.63;;;;;;;;;;4327732;33;20259;-69
2021/04/07 05:16:46;;;;;;;18.93;3.37;;;;;;;;;;4330147;33;20215;-69
2021/04/07 05:19:11;;;;;;;23.13;3.30;;;;;;;;;;4330871;33;20183;-69
2021/04/07 05:24:41;;;;;;;25.37;4.20;;;;;;;;;;4333336;33;20530;-68
2021/04/07 05:27:07;;;;;;;33.30;4.13;;;;;;;;;;4345035;33;20139;-69
2021/04/07 05:29:32;;;;;;;16.10;2.60;;;;;;;;;;4345219;33;20151;-70
2021/04/07 05:31:57;;;;;;;35.93;3.93;;;;;;;;;;4344201;33;20193;-69
2021/04/07 05:37:31;;;;;;;31.33;4.33;;;;;;;;;;4331152;33;20556;-70
2021/04/07 05:39:56;;;;;;;37.77;4.93;;;;;;;;;;4330946;33;20183;-70
2021/04/07 05:42:22;;;;;;;37.17;5.23;;;;;;;;;;4330057;33;20147;-68
2021/04/07 05:44:50;;;;;;;45.10;5.97;;;;;;;;;;4329468;33;20197;-70
2021/04/07 05:47:24;;;;;;;45.33;6.23;;;;;;;;;;4330707;33;20178;-70
2021/04/07 05:49:49;;;;;;;46.37;6.87;;;;;;;;;;4329798;33;20192;-70
2021/04/07 05:52:14;;;;;;;42.13;6.30;;;;;;;;;;4329964;33;20159;-71
2021/04/07 05:54:40;;;;;;;40.13;6.07;;;;;;;;;;4331068;33;20538;-67
2021/04/07 05:57:05;;;;;;;45.67;5.43;;;;;;;;;;4330188;33;20235;-70
2021/04/07 06:00:01;;;;;;;30.20;5.73;;;;;;;;;;4333336;33;20502;-70
2021/04/07 06:02:38;;;;;;;34.77;4.73;;;;;;;;;;4332846;33;20211;-71
2021/04/07 06:05:04;;;;;;;43.27;5.43;;;;;;;;;;4332736;33;20166;-71
2021/04/07 06:07:29;;;;;;;39.43;5.33;;;;;;;;;;4332248;33;20151;-70
2021/04/07 06:10:04;;;;;;;38.70;5.77;;;;;;;;;;4332252;33;20192;-71
2021/04/07 06:12:30;;;;;;;50.03;7.53;;;;;;;;;;4331891;33;20206;-72
2021/04/07 06:14:55;;;;;;;38.57;5.63;;;;;;;;;;4330935;33;20190;-72
2021/04/07 06:17:26;;;;;;;33.07;5.57;;;;;;;;;;4329941;33;20156;-72
2021/04/07 06:19:54;;;;;;;43.57;5.93;;;;;;;;;;4332011;33;20159;-74
2021/04/07 06:22:19;;;;;;;37.90;5.90;;;;;;;;;;4331467;33;20206;-71
2021/04/07 06:24:44;;;;;;;42.27;5.90;;;;;;;;;;4332235;33;20152;-70
2021/04/07 06:27:10;;;;;;;44.17;6.13;;;;;;;;;;4332407;33;20135;-71
2021/04/07 06:29:35;;;;;;;33.40;5.47;;;;;;;;;;4331916;33;20147;-69
2021/04/07 06:32:02;;;;;;;37.13;5.55;;;;;;;;;;4331787;33;20199;-71
2021/04/07 06:34:28;;;;;;;32.47;5.07;;;;;;;;;;4332231;33;20163;-71
2021/04/07 06:36:55;;;;;;;48.43;5.40;;;;;;;;;;4332128;33;20143;-71
2021/04/07 06:39:21;;;;;;;36.17;5.57;;;;;;;;;;4332332;33;20227;-70
2021/04/07 06:41:46;;;;;;;31.63;4.63;;;;;;;;;;4331748;33;20225;-71
2021/04/07 06:44:12;;;;;;;26.60;4.97;;;;;;;;;;4331664;33;20155;-71
2021/04/07 06:46:38;;;;;;;25.60;4.53;;;;;;;;;;4330633;33;20195;-70
2021/04/07 06:49:07;;;;;;;42.13;6.40;;;;;;;;;;4332242;33;20178;-71
2021/04/07 06:51:35;;;;;;;31.17;4.87;;;;;;;;;;4331720;33;20210;-71
2021/04/07 06:54:06;;;;;;;28.97;4.57;;;;;;;;;;4331628;33;20160;-72
2021/04/07 06:56:33;;;;;;;30.23;4.60;;;;;;;;;;4330699;33;20230;-71
2021/04/07 06:58:58;;;;;;;35.57;5.60;;;;;;;;;;4330773;33;20192;-71
2021/04/07 07:01:24;;;;;;;33.23;4.60;;;;;;;;;;4331035;33;20222;-70
2021/04/07 07:03:49;;;;;;;35.97;4.03;;;;;;;;;;4330300;33;20175;-71
2021/04/07 07:06:14;;;;;;;38.70;4.33;;;;;;;;;;4330698;33;20216;-70
2021/04/07 07:08:45;;;;;;;31.70;4.27;;;;;;;;;;4330955;33;20204;-70
2021/04/07 07:11:11;;;;;;;26.37;4.30;;;;;;;;;;4329947;33;20514;-70
2021/04/07 07:13:37;;;;;;;25.67;4.13;;;;;;;;;;4331355;33;20175;-70
2021/04/07 07:16:02;;;;;;;32.40;4.60;;;;;;;;;;4319222;33;20227;-71
2021/04/07 07:18:28;;;;;;;32.77;5.10;;;;;;;;;;4316791;33;20479;-69
2021/04/07 07:20:54;;;;;;;27.60;4.30;;;;;;;;;;4330279;33;20170;-70
2021/04/07 07:23:27;;;;;;;30.90;5.07;;;;;;;;;;4330003;33;20198;-71
2021/04/07 07:26:08;;;;;;;31.03;4.20;;;;;;;;;;4331282;33;20147;-70
2021/04/07 07:28:40;;;;;;;36.60;5.00;;;;;;;;;;4330689;33;20268;-70
2021/04/07 07:31:17;;;;;;;29.23;4.33;;;;;;;;;;4329485;33;20554;-71
2021/04/07 07:33:42;;;;;;;25.30;3.27;;;;;;;;;;4321448;33;20147;-72
2021/04/07 07:36:11;;;;;;;15.90;2.97;;;;;;;;;;4318898;33;20200;-71
2021/04/07 07:38:43;;;;;;;21.37;3.30;;;;;;;;;;4318035;33;20693;-71
2021/04/07 07:41:08;;;;;;;17.37;3.20;;;;;;;;;;4329055;33;21735;-71
2021/04/07 07:43:37;;;;;;;25.90;3.70;;;;;;;;;;4330274;33;20140;-69
2021/04/07 07:46:10;;;;;;;19.37;3.23;;;;;;;;;;4328421;33;20167;-71
2021/04/07 07:48:36;;;;;;;25.63;3.90;;;;;;;;;;4328516;33;20148;-70
2021/04/07 07:51:10;;;;;;;22.10;3.73;;;;;;;;;;4329808;33;20191;-70
2021/04/07 07:53:36;;;;;;;22.97;4.03;;;;;;;;;;4340178;33;20968;-71
2021/04/07 07:56:01;;;;;;;26.60;3.87;;;;;;;;;;4330213;33;20167;-70
2021/04/07 07:58:27;;;;;;;35.97;4.53;;;;;;;;;;4329503;33;20569;-68
2021/04/07 08:01:05;;;;;;;28.93;4.23;;;;;;;;;;4329091;33;20220;-71
2021/04/07 08:03:31;;;;;;;28.53;4.27;;;;;;;;;;4330332;33;20203;-72
2021/04/07 08:05:58;;;;;;;30.07;4.37;;;;;;;;;;4329773;33;20231;-70
2021/04/07 08:08:24;;;;;;;19.33;3.87;;;;;;;;;;4330274;33;20282;-70
2021/04/07 08:10:49;;;;;;;25.07;3.70;;;;;;;;;;4329827;33;20612;-71
2021/04/07 08:13:14;;;;;;;28.70;4.40;;;;;;;;;;4330087;33;20161;-69
2021/04/07 08:15:40;;;;;;;29.00;3.97;;;;;;;;;;4329774;33;20182;-71
2021/04/07 08:18:06;;;;;;;24.23;3.80;;;;;;;;;;4317370;33;20495;-69
2021/04/07 08:20:32;;;;;;;29.17;3.83;;;;;;;;;;4320038;33;20147;-67
2021/04/07 08:22:57;;;;;;;26.00;4.63;;;;;;;;;;4330068;33;20246;-71
2021/04/07 08:25:22;;;;;;;21.50;3.23;;;;;;;;;;4329595;33;20140;-73
2021/04/07 08:27:52;;;;;;;27.10;4.13;;;;;;;;;;4329464;33;20298;-70
2021/04/07 08:30:18;;;;;;;30.73;4.10;;;;;;;;;;4329378;33;20203;-71
2021/04/07 08:32:45;;;;;;;28.80;3.77;;;;;;;;;;4329746;33;20614;-71
2021/04/07 08:35:12;;;;;;;20.73;3.90;;;;;;;;;;4330109;33;20474;-70
2021/04/07 08:37:37;;;;;;;25.83;3.60;;;;;;;;;;4329279;33;20218;-67
2021/04/07 08:40:10;;;;;;;21.60;4.03;;;;;;;;;;4328549;33;20687;-72
2021/04/07 08:42:36;;;;;;;27.10;3.73;;;;;;;;;;4325459;33;20152;-67
2021/04/07 08:45:04;;;;;;;20.53;3.60;;;;;;;;;;4328788;33;20210;-71
2021/04/07 08:47:31;;;;;;;22.33;3.90;;;;;;;;;;4328892;33;20152;-71
2021/04/07 08:50:03;;;;;;;23.27;3.43;;;;;;;;;;4330041;33;20247;-69
2021/04/07 08:52:29;;;;;;;18.03;3.10;;;;;;;;;;4329682;33;20164;-70
2021/04/07 08:54:58;;;;;;;20.93;3.67;;;;;;;;;;4329905;33;20148;-72
2021/04/07 08:57:24;;;;;;;23.70;3.67;;;;;;;;;;4328696;33;20155;-70
2021/04/07 08:59:53;;;;;;;31.67;3.97;;;;;;;;;;4329073;33;20148;-70
2021/04/07 09:02:19;;;;;;;25.83;3.63;;;;;;;;;;4327809;33;20176;-70
2021/04/07 09:04:46;;;;;;;19.33;3.20;;;;;;;;;;4316138;33;20172;-72
2021/04/07 09:07:14;;;;;;;17.33;3.07;;;;;;;;;;4329608;33;20132;-69
2021/04/07 09:09:40;;;;;;;26.97;4.70;;;;;;;;;;4328676;33;20155;-71
2021/04/07 09:12:06;;;;;;;21.67;3.20;;;;;;;;;;4328102;33;20601;-71
2021/04/07 09:14:34;;;;;;;20.47;2.97;;;;;;;;;;4329583;33;20152;-70
2021/04/07 09:17:02;;;;;;;25.90;3.63;;;;;;;;;;4329940;33;20207;-71
2021/04/07 09:19:31;;;;;;;20.33;3.37;;;;;;;;;;4329726;33;20601;-71
2021/04/07 09:21:59;;;;;;;18.20;2.63;;;;;;;;;;4327841;33;20537;-68
2021/04/07 09:24:27;;;;;;;19.00;2.70;;;;;;;;;;4329752;33;20152;-69
2021/04/07 09:26:53;;;;;;;18.83;2.90;;;;;;;;;;4329635;33;20174;-70
2021/04/07 09:29:19;;;;;;;19.77;3.00;;;;;;;;;;4330147;33;20159;-72
2021/04/07 09:31:45;;;;;;;24.23;3.03;;;;;;;;;;4320463;33;20187;-70
2021/04/07 09:34:11;;;;;;;22.73;3.70;;;;;;;;;;4332648;33;20160;-69
2021/04/07 09:36:38;;;;;;;19.77;3.50;;;;;;;;;;4332415;33;20194;-72
2021/04/07 09:39:08;;;;;;;14.33;3.23;;;;;;;;;;4331997;33;20155;-71
2021/04/07 09:41:35;;;;;;;19.13;3.00;;;;;;;;;;4317517;33;20187;-70
2021/04/07 09:44:00;;;;;;;18.60;3.60;;;;;;;;;;4318293;33;20596;-70
2021/04/07 09:46:27;;;;;;;17.97;3.47;;;;;;;;;;4321086;33;20172;-72
2021/04/07 09:48:58;;;;;;;25.57;3.37;;;;;;;;;;4332155;33;20195;-70
2021/04/07 09:51:28;;;;;;;18.20;3.20;;;;;;;;;;4332168;33;20190;-71
2021/04/07 09:53:55;;;;;;;14.00;2.80;;;;;;;;;;4330532;33;20238;-71
2021/04/07 09:56:20;;;;;;;14.80;2.47;;;;;;;;;;4322918;33;20164;-70
2021/04/07 09:58:47;;;;;;;12.90;2.57;;;;;;;;;;4328353;33;20206;-70
2021/04/07 10:01:16;;;;;;;11.37;2.13;;;;;;;;;;4330568;33;20222;-69
2021/04/07 10:03:48;;;;;;;12.07;2.60;;;;;;;;;;4330057;33;20231;-70
2021/04/07 10:06:32;;;;;;;12.83;2.07;;;;;;;;;;4329651;33;20167;-71
2021/04/07 10:09:03;;;;;;;13.20;2.17;;;;;;;;;;4331202;33;20238;-70
2021/04/07 10:11:29;;;;;;;12.50;2.23;;;;;;;;;;4329578;33;20148;-67
2021/04/07 10:13:55;;;;;;;14.17;2.37;;;;;;;;;;4329591;33;20170;-68
2021/04/07 10:16:21;;;;;;;13.57;2.43;;;;;;;;;;4331216;33;20510;-71
2021/04/07 10:18:46;;;;;;;13.93;2.13;;;;;;;;;;4331377;33;20505;-71
2021/04/07 10:21:20;;;;;;;14.93;2.07;;;;;;;;;;4331006;33;20152;-69
2021/04/07 10:23:47;;;;;;;11.63;2.67;;;;;;;;;;4331554;33;20159;-70
2021/04/07 10:26:13;;;;;;;15.03;2.70;;;;;;;;;;4331628;33;20464;-71
2021/04/07 10:28:38;;;;;;;18.70;3.00;;;;;;;;;;4331832;33;20203;-68
2021/04/07 10:31:08;;;;;;;17.70;2.70;;;;;;;;;;4316798;33;20703;-70
2021/04/07 10:33:33;;;;;;;14.33;2.87;;;;;;;;;;4330307;33;20152;-70
2021/04/07 10:35:59;;;;;;;12.77;1.97;;;;;;;;;;4330094;33;20569;-72
2021/04/07 10:38:28;;;;;;;14.23;2.20;;;;;;;;;;4329115;33;20289;-70
2021/04/07 10:40:57;;;;;;;16.13;2.73;;;;;;;;;;4329611;33;20203;-69
2021/04/07 10:43:22;;;;;;;11.00;2.33;;;;;;;;;;4331715;33;20141;-67
2021/04/07 10:45:57;;;;;;;13.40;2.23;;;;;;;;;;4330893;33;20182;-71
2021/04/07 10:48:22;;;;;;;17.23;2.37;;;;;;;;;;4330645;33;20198;-70
2021/04/07 10:50:47;;;;;;;13.73;2.50;;;;;;;;;;4330460;33;20850;-72
2021/04/07 10:53:13;;;;;;;11.77;1.80;;;;;;;;;;4331834;33;20156;-71
2021/04/07 10:55:38;;;;;;;14.23;2.30;;;;;;;;;;4331421;33;20144;-67
2021/04/07 10:58:03;;;;;;;12.27;2.20;;;;;;;;;;4331131;33;20136;-69
2021/04/07 11:00:32;;;;;;;10.10;2.40;;;;;;;;;;4317370;33;20176;-69
2021/04/07 11:02:58;;;;;;;9.60;1.70;;;;;;;;;;4330489;33;20253;-72
2021/04/07 11:05:25;;;;;;;9.43;1.50;;;;;;;;;;4330409;33;20534;-72
2021/04/07 11:08:04;;;;;;;10.20;1.70;;;;;;;;;;4316046;33;20190;-71
2021/04/07 11:10:40;;;;;;;10.57;1.80;;;;;;;;;;4329968;33;20219;-68
2021/04/07 11:13:06;;;;;;;9.97;1.90;;;;;;;;;;4330902;33;20223;-71
2021/04/07 11:15:31;;;;;;;12.27;2.30;;;;;;;;;;4330702;33;20140;-71
2021/04/07 11:17:57;;;;;;;12.13;2.47;;;;;;;;;;4330666;33;20202;-70
2021/04/07 11:20:23;;;;;;;11.83;1.90;;;;;;;;;;4327033;33;20156;-73
2021/04/07 11:22:48;;;;;;;15.50;2.13;;;;;;;;;;4329927;33;20636;-69
2021/04/07 11:25:13;;;;;;;14.37;2.27;;;;;;;;;;4329274;33;20206;-74
2021/04/07 11:27:39;;;;;;;12.80;1.90;;;;;;;;;;4328428;33;20174;-70
2021/04/07 11:30:05;;;;;;;12.83;2.47;;;;;;;;;;4331627;33;20152;-72
2021/04/07 11:32:32;;;;;;;14.77;2.47;;;;;;;;;;4331229;33;20182;-72
2021/04/07 11:37:57;;;;;;;18.00;2.50;;;;;;;;;;4324443;33;20711;-69
2021/04/07 11:45:37;;;;;;;11.67;2.03;;;;;;;;;;4328921;33;20207;-71
2021/04/07 11:48:02;;;;;;;13.13;2.47;;;;;;;;;;4330030;33;20222;-71
2021/04/07 11:50:27;;;;;;;19.83;2.93;;;;;;;;;;4329655;33;20180;-70
2021/04/07 11:52:52;;;;;;;11.43;2.50;;;;;;;;;;4328882;33;20254;-71
2021/04/07 11:55:18;;;;;;;20.07;2.50;;;;;;;;;;4329786;33;20205;-70
2021/04/07 11:57:43;;;;;;;18.50;3.70;;;;;;;;;;4329388;33;20159;-71
2021/04/07 12:00:09;;;;;;;13.77;2.27;;;;;;;;;;4329730;33;20211;-70
2021/04/07 12:02:37;;;;;;;11.53;1.83;;;;;;;;;;4316956;33;20160;-71
2021/04/07 12:05:02;;;;;;;9.53;1.40;;;;;;;;;;4327754;33;20179;-71
2021/04/07 12:07:28;;;;;;;10.17;1.60;;;;;;;;;;4327587;33;20191;-71
2021/04/07 12:09:53;;;;;;;5.20;1.13;;;;;;;;;;4329971;33;20220;-72
2021/04/07 12:12:18;;;;;;;8.07;1.30;;;;;;;;;;4330222;33;20144;-70
2021/04/07 12:14:43;;;;;;;4.20;1.10;;;;;;;;;;4329774;33;20152;-71
2021/04/07 12:17:09;;;;;;;7.00;1.70;;;;;;;;;;4330234;33;20178;-71
2021/04/07 12:19:34;;;;;;;8.83;1.77;;;;;;;;;;4330856;33;20148;-69
2021/04/07 12:22:00;;;;;;;13.73;1.90;;;;;;;;;;4330675;33;20140;-70
2021/04/07 12:24:25;;;;;;;13.13;1.97;;;;;;;;;;4330238;33;20180;-71
2021/04/07 12:26:50;;;;;;;7.40;1.53;;;;;;;;;;4330153;33;20144;-70
2021/04/07 12:29:16;;;;;;;10.90;1.80;;;;;;;;;;4329148;33;20164;-69
2021/04/07 12:31:41;;;;;;;10.20;1.83;;;;;;;;;;4330008;33;20564;-71
2021/04/07 12:34:07;;;;;;;12.33;2.07;;;;;;;;;;4330563;33;20587;-70
2021/04/07 12:36:33;;;;;;;7.40;2.00;;;;;;;;;;4341264;33;20194;-71
2021/04/07 12:38:59;;;;;;;12.40;1.87;;;;;;;;;;4330080;33;20175;-69
2021/04/07 12:41:49;;;;;;;8.97;1.73;;;;;;;;;;4335463;33;20194;-69
2021/04/07 12:44:15;;;;;;;9.63;1.70;;;;;;;;;;4330809;33;20178;-69
2021/04/07 12:46:40;;;;;;;11.20;1.93;;;;;;;;;;4329800;33;20152;-70
2021/04/07 12:49:06;;;;;;;10.43;1.97;;;;;;;;;;4330070;33;20144;-72
2021/04/07 12:51:31;;;;;;;11.47;1.70;;;;;;;;;;4330868;33;20148;-71
2021/04/07 12:53:57;;;;;;;12.97;1.93;;;;;;;;;;4330592;33;20160;-66
2021/04/07 12:56:23;;;;;;;13.33;2.30;;;;;;;;;;4330612;33;20152;-69
2021/04/07 12:58:49;;;;;;;8.57;1.83;;;;;;;;;;4330235;33;20211;-68
2021/04/07 13:01:14;;;;;;;12.33;1.97;;;;;;;;;;4329958;33;20179;-68
2021/04/07 13:03:39;;;;;;;14.17;2.40;;;;;;;;;;4330610;33;20505;-71
2021/04/07 13:06:05;;;;;;;9.83;1.73;;;;;;;;;;4329674;33;20143;-70
2021/04/07 13:08:30;;;;;;;9.50;2.67;;;;;;;;;;4329006;33;20172;-68
2021/04/07 13:10:55;;;;;;;9.27;1.87;;;;;;;;;;4330467;33;20191;-69
2021/04/07 13:13:21;;;;;;;8.88;1.70;;;;;;;;;;4329336;33;20223;-70
2021/04/07 13:15:46;;;;;;;10.40;1.75;;;;;;;;;;4330691;33;20148;-71
2021/04/07 13:18:12;;;;;;;11.13;1.80;;;;;;;;;;4330543;33;20140;-71
2021/04/07 13:20:37;;;;;;;8.30;2.00;;;;;;;;;;4328383;33;20200;-67
2021/04/07 13:23:02;;;;;;;14.23;2.10;;;;;;;;;;4330211;33;20478;-71
2021/04/07 13:25:28;;;;;;;11.65;2.25;;;;;;;;;;4328869;33;20595;-70
2021/04/07 13:27:53;;;;;;;13.38;2.03;;;;;;;;;;4329085;33;20175;-68
2021/04/07 13:30:19;;;;;;;11.32;1.90;;;;;;;;;;4316451;33;20724;-70
2021/04/07 13:32:51;;;;;;;14.35;2.05;;;;;;;;;;4330027;33;20212;-70
2021/04/07 13:35:28;;;;;;;9.75;2.30;;;;;;;;;;4330052;33;20154;-68
2021/04/07 13:42:56;;;;;;;18.00;2.15;;;;;;;;;;4329457;33;20136;-68
2021/04/07 13:45:26;;;;;;;15.27;2.40;;;;;;;;;;4329883;33;20155;-70
2021/04/07 13:47:53;;;;;;;10.50;2.00;;;;;;;;;;4329194;33;20199;-72
2021/04/07 13:50:18;;;;;;;12.93;2.30;;;;;;;;;;4328438;33;20196;-71
2021/04/07 13:52:44;;;;;;;9.40;1.77;;;;;;;;;;4329281;33;20160;-71
2021/04/07 13:55:10;;;;;;;16.27;2.30;;;;;;;;;;4329799;33;20135;-71
2021/04/07 13:57:35;;;;;;;12.07;2.23;;;;;;;;;;4325803;33;20467;-70
2021/04/07 14:00:01;;;;;;;11.70;1.83;;;;;;;;;;4314974;33;20186;-71
2021/04/07 14:02:31;;;;;;;7.70;1.60;;;;;;;;;;4314056;33;20203;-69
2021/04/07 14:04:56;;;;;;;11.77;2.05;;;;;;;;;;4315185;33;20136;-70
2021/04/07 14:07:22;;;;;;;9.32;1.80;;;;;;;;;;4315441;33;20152;-73
2021/04/07 14:09:48;;;;;;;8.10;2.12;;;;;;;;;;4314976;33;20202;-71
2021/04/07 14:12:16;;;;;;;7.37;1.52;;;;;;;;;;4314050;33;20641;-72
2021/04/07 14:14:41;;;;;;;8.07;1.62;;;;;;;;;;4313821;33;20222;-72
2021/04/07 14:17:06;;;;;;;8.38;1.75;;;;;;;;;;4317188;33;20515;-71
2021/04/07 14:19:31;;;;;;;9.52;1.85;;;;;;;;;;4332054;33;20144;-72
2021/04/07 14:21:57;;;;;;;9.27;1.77;;;;;;;;;;4331002;33;20203;-72
2021/04/07 14:24:22;;;;;;;11.05;2.00;;;;;;;;;;4331682;33;20248;-72
2021/04/07 14:26:47;;;;;;;12.37;1.80;;;;;;;;;;4330778;33;20208;-71
2021/04/07 14:29:12;;;;;;;8.60;2.23;;;;;;;;;;4331360;33;20148;-72
2021/04/07 14:31:39;;;;;;;13.00;2.20;;;;;;;;;;4333077;33;20174;-72
2021/04/07 14:34:04;;;;;;;15.40;2.83;;;;;;;;;;4331450;33;20599;-73
2021/04/07 14:36:29;;;;;;;13.82;2.47;;;;;;;;;;4332506;33;20153;-72
2021/04/07 14:38:55;;;;;;;10.57;2.50;;;;;;;;;;4331333;33;20154;-70
2021/04/07 14:41:20;;;;;;;9.07;2.53;;;;;;;;;;4330210;33;20180;-72
2021/04/07 14:43:45;;;;;;;11.23;1.60;;;;;;;;;;4331589;33;20143;-71
2021/04/07 14:46:11;;;;;;;9.40;1.77;;;;;;;;;;4331787;33;20132;-69
2021/04/07 14:48:37;;;;;;;5.87;1.63;;;;;;;;;;4330889;33;20482;-72
2021/04/07 14:51:04;;;;;;;8.50;1.77;;;;;;;;;;4318238;33;20164;-69
2021/04/07 14:53:30;;;;;;;6.85;1.62;;;;;;;;;;4332487;33;20179;-69
2021/04/07 14:55:55;;;;;;;4.68;1.42;;;;;;;;;;4330378;33;20163;-73
2021/04/07 14:58:21;;;;;;;7.87;1.65;;;;;;;;;;4332040;33;20477;-71
2021/04/07 15:00:47;;;;;;;12.27;1.87;;;;;;;;;;4332056;33;20143;-73
2021/04/07 15:03:12;;;;;;;11.27;2.28;;;;;;;;;;4331337;33;20574;-70
2021/04/07 15:05:37;;;;;;;9.52;2.10;;;;;;;;;;4331243;33;20232;-71
2021/04/07 15:08:03;;;;;;;7.03;1.62;;;;;;;;;;4332412;33;20159;-71